createdAt,value
2022-07-28T00:01:14.496Z,64.52
2022-07-28T00:03:48.972Z,64.41
2022-07-28T00:06:17.927Z,64.37
2022-07-28T00:08:46.558Z,63.85
2022-07-28T00:11:16.481Z,63.40
2022-07-28T00:13:44.944Z,63.45
2022-07-28T00:16:13.666Z,63.66
2022-07-28T00:18:42.276Z,64.00
2022-07-28T00:21:10.751Z,64.25
2022-07-28T00:23:39.899Z,64.39
2022-07-28T00:26:09.774Z,64.43
2022-07-28T00:28:39.891Z,64.53
2022-07-28T00:31:08.808Z,64.46
2022-07-28T00:33:40.084Z,64.21
2022-07-28T00:36:11.636Z,64.08
2022-07-28T00:38:44.247Z,64.10
2022-07-28T00:41:13.794Z,63.86
2022-07-28T00:43:45.773Z,63.70
2022-07-28T00:46:17.352Z,63.43
2022-07-28T00:48:47.645Z,63.43
2022-07-28T00:51:17.530Z,63.51
2022-07-28T00:53:46.528Z,63.36
2022-07-28T00:56:15.867Z,63.25
2022-07-28T00:58:47.247Z,63.12
2022-07-28T01:01:19.721Z,62.96
2022-07-28T01:03:51.555Z,62.74
2022-07-28T01:06:50.741Z,62.96
2022-07-28T01:09:39.684Z,62.95
2022-07-28T01:12:28.291Z,63.11
2022-07-28T01:15:09.695Z,63.45
2022-07-28T01:17:45.985Z,63.71
2022-07-28T01:20:19.735Z,64.55
2022-07-28T01:23:20.495Z,65.16
2022-07-28T01:26:02.817Z,64.96
2022-07-28T01:28:45.624Z,65.17
2022-07-28T01:31:23.661Z,65.10
2022-07-28T01:33:57.944Z,65.26
2022-07-28T01:36:30.521Z,65.57
2022-07-28T01:39:01.427Z,65.35
2022-07-28T01:41:32.186Z,64.68
2022-07-28T01:44:03.067Z,64.49
2022-07-28T01:46:34.508Z,64.38
2022-07-28T01:49:03.926Z,64.52
2022-07-28T01:51:35.243Z,64.42
2022-07-28T01:54:04.773Z,64.67
2022-07-28T01:56:34.626Z,64.43
2022-07-28T01:59:07.188Z,65.00
2022-07-28T02:01:39.233Z,65.10
2022-07-28T02:04:09.718Z,65.14
2022-07-28T02:06:40.660Z,65.07
2022-07-28T02:09:10.253Z,64.92
2022-07-28T02:11:42.318Z,65.03
2022-07-28T02:14:15.022Z,65.28
2022-07-28T02:16:48.364Z,65.04
2022-07-28T02:19:19.420Z,64.88
2022-07-28T02:21:49.196Z,64.81
2022-07-28T02:24:22.367Z,64.71
2022-07-28T02:26:54.696Z,64.88
2022-07-28T02:29:49.836Z,64.94
2022-07-28T02:32:28.021Z,65.06
2022-07-28T02:35:09.554Z,65.47
2022-07-28T02:37:41.134Z,65.64
2022-07-28T02:40:15.676Z,65.53
2022-07-28T02:42:48.015Z,65.65
2022-07-28T02:45:17.856Z,65.90
2022-07-28T02:47:51.278Z,66.32
2022-07-28T02:50:25.540Z,66.88
2022-07-28T02:52:58.221Z,67.26
2022-07-28T02:55:27.259Z,67.42
2022-07-28T02:57:57.089Z,67.22
2022-07-28T03:00:26.354Z,66.84
2022-07-28T03:02:57.489Z,66.90
2022-07-28T03:05:26.541Z,66.85
2022-07-28T03:07:56.695Z,66.66
2022-07-28T03:10:33.951Z,66.61
2022-07-28T03:13:05.340Z,66.22
2022-07-28T03:15:34.202Z,65.93
2022-07-28T03:18:05.647Z,66.11
2022-07-28T03:20:35.309Z,66.06
2022-07-28T03:23:04.343Z,66.12
2022-07-28T03:25:40.317Z,66.25
2022-07-28T03:28:14.022Z,66.27
2022-07-28T03:30:46.129Z,66.22
2022-07-28T03:33:16.620Z,66.03
2022-07-28T03:35:48.732Z,65.93
2022-07-28T03:38:22.649Z,65.86
2022-07-28T03:40:54.019Z,65.78
2022-07-28T03:43:26.040Z,65.64
2022-07-28T03:45:54.565Z,65.39
2022-07-28T03:48:30.068Z,65.37
2022-07-28T03:50:58.882Z,65.45
2022-07-28T03:53:29.562Z,65.86
2022-07-28T03:55:58.107Z,66.26
2022-07-28T03:58:28.635Z,66.86
2022-07-28T04:00:57.891Z,67.42
2022-07-28T04:03:36.507Z,67.32
2022-07-28T04:06:12.105Z,67.28
2022-07-28T04:08:40.984Z,66.79
2022-07-28T04:11:09.630Z,66.64
2022-07-28T04:13:38.133Z,66.89
2022-07-28T04:16:07.951Z,66.83
2022-07-28T04:18:38.080Z,66.72
2022-07-28T04:21:08.285Z,66.56
2022-07-28T04:23:36.796Z,66.59
2022-07-28T04:26:05.578Z,66.33
2022-07-28T04:28:37.015Z,66.32
2022-07-28T04:31:05.563Z,66.20
2022-07-28T04:33:34.127Z,66.25
2022-07-28T04:36:04.476Z,66.48
2022-07-28T04:38:32.923Z,66.71
2022-07-28T04:41:01.978Z,66.43
2022-07-28T04:43:30.632Z,66.62
2022-07-28T04:45:59.496Z,66.72
2022-07-28T04:48:27.995Z,66.48
2022-07-28T04:50:57.244Z,66.78
2022-07-28T04:53:28.451Z,66.84
2022-07-28T04:55:57.418Z,66.67
2022-07-28T04:58:27.543Z,66.89
2022-07-28T05:00:59.426Z,66.71
2022-07-28T05:03:31.521Z,66.55
2022-07-28T05:06:02.657Z,66.71
2022-07-28T05:08:32.480Z,66.63
2022-07-28T05:11:00.944Z,66.65
2022-07-28T05:13:33.961Z,66.83
2022-07-28T05:16:03.118Z,66.90
2022-07-28T05:18:31.708Z,66.95
2022-07-28T05:21:00.244Z,67.09
2022-07-28T05:23:28.847Z,66.92
2022-07-28T05:25:58.647Z,66.85
2022-07-28T05:28:27.401Z,66.64
2022-07-28T05:30:56.265Z,66.44
2022-07-28T05:33:24.895Z,66.48
2022-07-28T05:36:00.424Z,66.19
2022-07-28T05:38:30.371Z,66.33
2022-07-28T05:41:00.515Z,66.22
2022-07-28T05:43:29.035Z,66.28
2022-07-28T05:45:57.745Z,66.11
2022-07-28T05:48:26.337Z,65.95
2022-07-28T05:50:55.104Z,66.04
2022-07-28T05:53:23.649Z,66.19
2022-07-28T05:55:59.976Z,66.34
2022-07-28T05:58:32.117Z,66.33
2022-07-28T06:01:01.469Z,65.87
2022-07-28T06:03:32.132Z,65.98
2022-07-28T06:06:15.723Z,66.11
2022-07-28T06:08:46.906Z,66.23
2022-07-28T06:11:22.262Z,66.54
2022-07-28T06:13:53.445Z,66.83
2022-07-28T06:16:23.307Z,66.90
2022-07-28T06:18:52.733Z,67.17
2022-07-28T06:21:24.244Z,67.51
2022-07-28T06:23:52.839Z,67.50
2022-07-28T06:26:23.577Z,67.47
2022-07-28T06:28:54.005Z,67.65
2022-07-28T06:31:22.552Z,67.39
2022-07-28T06:33:51.055Z,67.29
2022-07-28T06:36:19.749Z,66.98
2022-07-28T06:38:48.319Z,66.91
2022-07-28T06:41:17.442Z,66.87
2022-07-28T06:43:45.946Z,66.87
2022-07-28T06:46:19.672Z,67.14
2022-07-28T06:48:48.408Z,67.20
2022-07-28T06:51:19.728Z,67.22
2022-07-28T06:53:49.487Z,67.32
2022-07-28T06:56:19.664Z,67.49
2022-07-28T06:58:50.427Z,67.53
2022-07-28T07:01:20.402Z,67.57
2022-07-28T07:03:49.011Z,67.40
2022-07-28T07:06:17.485Z,67.49
2022-07-28T07:08:47.286Z,67.58
2022-07-28T07:11:15.859Z,67.65
2022-07-28T07:13:44.354Z,67.77
2022-07-28T07:16:12.966Z,67.80
2022-07-28T07:18:43.055Z,67.83
2022-07-28T07:21:11.621Z,67.58
2022-07-28T07:23:40.266Z,67.25
2022-07-28T07:26:08.732Z,67.04
2022-07-28T07:28:37.301Z,66.94
2022-07-28T07:31:06.572Z,66.83
2022-07-28T07:33:35.129Z,66.59
2022-07-28T07:36:05.498Z,66.58
2022-07-28T07:38:34.101Z,66.55
2022-07-28T07:41:03.462Z,66.82
2022-07-28T07:43:32.261Z,66.67
2022-07-28T07:46:01.290Z,66.63
2022-07-28T07:48:29.783Z,66.86
2022-07-28T07:50:58.267Z,66.93
2022-07-28T07:53:28.133Z,66.78
2022-07-28T07:55:56.730Z,66.49
2022-07-28T07:58:25.308Z,66.31
2022-07-28T08:00:54.377Z,66.22
2022-07-28T08:03:22.913Z,66.31
2022-07-28T08:05:56.759Z,66.25
2022-07-28T08:08:27.350Z,66.08
2022-07-28T08:10:55.902Z,65.64
2022-07-28T08:13:24.395Z,65.44
2022-07-28T08:15:52.935Z,65.31
2022-07-28T08:18:21.703Z,65.32
2022-07-28T08:20:50.235Z,65.01
2022-07-28T08:23:22.902Z,64.93
2022-07-28T08:25:55.844Z,64.80
2022-07-28T08:28:24.361Z,64.52
2022-07-28T08:30:53.386Z,64.31
2022-07-28T08:33:22.126Z,64.50
2022-07-28T08:35:51.089Z,64.22
2022-07-28T08:38:20.125Z,63.99
2022-07-28T08:40:51.436Z,63.79
2022-07-28T08:43:33.501Z,63.53
2022-07-28T08:46:04.303Z,63.28
2022-07-28T08:48:35.046Z,63.27
2022-07-28T08:51:05.478Z,63.24
2022-07-28T08:53:36.466Z,62.97
2022-07-28T08:56:07.389Z,62.77
2022-07-28T08:58:39.303Z,62.73
2022-07-28T09:01:10.905Z,62.22
2022-07-28T09:03:40.047Z,62.10
2022-07-28T09:06:09.148Z,62.04
2022-07-28T09:08:38.158Z,61.69
2022-07-28T09:11:08.289Z,61.97
2022-07-28T09:13:38.481Z,61.83
2022-07-28T09:16:07.576Z,61.79
2022-07-28T09:18:36.480Z,61.41
2022-07-28T09:21:05.023Z,61.53
2022-07-28T09:23:44.808Z,60.71
2022-07-28T09:26:14.036Z,60.51
2022-07-28T09:28:51.524Z,60.57
2022-07-28T09:31:20.974Z,60.99
2022-07-28T09:33:57.870Z,61.25
2022-07-28T09:36:26.379Z,61.03
2022-07-28T09:38:56.689Z,60.69
2022-07-28T09:41:25.368Z,60.59
2022-07-28T09:43:55.977Z,60.71
2022-07-28T09:46:29.190Z,60.22
2022-07-28T09:48:59.924Z,59.97
2022-07-28T09:51:30.717Z,59.75
2022-07-28T09:54:10.836Z,59.87
2022-07-28T09:56:40.029Z,59.74
2022-07-28T09:59:10.695Z,59.58
2022-07-28T10:01:56.012Z,59.05
2022-07-28T10:04:37.610Z,59.07
2022-07-28T10:07:09.860Z,58.67
2022-07-28T10:09:39.611Z,58.62
2022-07-28T10:12:19.270Z,58.10
2022-07-28T10:14:50.507Z,57.94
2022-07-28T10:17:39.776Z,57.72
2022-07-28T10:20:09.963Z,57.78
2022-07-28T10:22:43.222Z,57.77
2022-07-28T10:25:13.188Z,57.44
2022-07-28T10:27:43.711Z,57.68
2022-07-28T10:30:15.262Z,57.45
2022-07-28T10:32:45.823Z,57.31
2022-07-28T10:35:15.918Z,57.27
2022-07-28T10:37:52.654Z,56.78
2022-07-28T10:40:26.142Z,56.61
2022-07-28T10:42:56.399Z,56.49
2022-07-28T10:45:48.078Z,56.35
2022-07-28T10:48:16.820Z,56.36
2022-07-28T10:50:45.891Z,56.15
2022-07-28T10:53:29.013Z,55.48
2022-07-28T10:56:03.650Z,54.96
2022-07-28T10:58:42.056Z,55.01
2022-07-28T11:01:26.669Z,54.89
2022-07-28T11:04:00.597Z,54.50
2022-07-28T11:06:31.199Z,54.18
2022-07-28T11:09:02.116Z,53.40
2022-07-28T11:11:47.203Z,53.24
2022-07-28T11:14:37.385Z,52.94
2022-07-28T11:17:24.328Z,52.30
2022-07-28T11:22:45.503Z,52.18
2022-07-28T11:25:21.813Z,52.08
2022-07-28T11:28:02.134Z,51.58
2022-07-28T11:30:58.064Z,51.68
2022-07-28T11:33:57.440Z,51.11
2022-07-28T11:36:46.043Z,51.19
2022-07-28T11:39:24.006Z,50.74
2022-07-28T11:41:53.623Z,50.70
2022-07-28T11:44:26.395Z,50.27
2022-07-28T11:46:55.513Z,49.98
2022-07-28T11:49:28.754Z,49.69
2022-07-28T11:52:11.687Z,49.73
2022-07-28T11:54:41.271Z,49.68
2022-07-28T11:57:12.065Z,49.54
2022-07-28T11:59:44.753Z,49.36
2022-07-28T12:02:20.201Z,48.71
2022-07-28T12:04:58.893Z,48.68
2022-07-28T12:07:34.223Z,48.57
2022-07-28T12:10:03.938Z,48.08
2022-07-28T12:12:33.473Z,47.57
2022-07-28T12:15:06.677Z,47.92
2022-07-28T12:17:36.036Z,48.25
2022-07-28T12:20:11.543Z,48.38
2022-07-28T12:22:42.775Z,47.30
2022-07-28T12:25:13.476Z,47.23
2022-07-28T12:27:44.806Z,47.37
2022-07-28T12:30:23.191Z,47.67
2022-07-28T12:32:52.255Z,47.91
2022-07-28T12:35:24.675Z,47.45
2022-07-28T12:37:53.407Z,47.31
2022-07-28T12:40:27.259Z,46.79
2022-07-28T12:42:56.261Z,46.62
2022-07-28T12:45:26.415Z,47.01
2022-07-28T12:47:55.146Z,46.55
2022-07-28T12:50:25.017Z,46.51
2022-07-28T12:53:04.781Z,45.93
2022-07-28T12:55:33.353Z,46.15
2022-07-28T12:58:02.038Z,45.70
2022-07-28T13:00:33.466Z,45.44
2022-07-28T13:03:20.769Z,45.89
2022-07-28T13:06:05.959Z,45.67
2022-07-28T13:08:44.014Z,44.78
2022-07-28T13:11:43.259Z,44.69
2022-07-28T13:14:04.436Z,44.21
2022-07-28T13:16:34.416Z,44.01
2022-07-28T13:19:04.475Z,43.67
2022-07-28T13:21:56.107Z,43.37
2022-07-28T13:24:26.096Z,43.61
2022-07-28T13:26:54.624Z,43.69
2022-07-28T13:29:23.813Z,42.91
2022-07-28T13:31:54.578Z,43.18
2022-07-28T13:34:23.670Z,42.85
2022-07-28T13:36:53.582Z,42.91
2022-07-28T13:39:22.531Z,42.47
2022-07-28T13:41:58.603Z,42.77
2022-07-28T13:44:28.394Z,42.63
2022-07-28T13:46:59.248Z,42.28
2022-07-28T13:49:28.545Z,42.33
2022-07-28T13:52:00.777Z,42.11
2022-07-28T13:54:29.452Z,41.85
2022-07-28T13:56:58.011Z,41.96
2022-07-28T13:59:26.637Z,41.86
2022-07-28T14:01:56.379Z,41.34
2022-07-28T14:04:25.315Z,41.09
2022-07-28T14:06:55.251Z,41.13
2022-07-28T14:09:25.312Z,41.48
2022-07-28T14:11:54.252Z,41.57
2022-07-28T14:14:24.946Z,41.56
2022-07-28T14:16:55.311Z,40.87
2022-07-28T14:19:38.133Z,41.18
2022-07-28T14:22:12.847Z,41.22
2022-07-28T14:24:44.080Z,41.49
2022-07-28T14:27:12.596Z,41.27
2022-07-28T14:29:42.541Z,41.47
2022-07-28T14:32:11.072Z,41.46
2022-07-28T14:34:39.741Z,41.64
2022-07-28T14:37:09.377Z,41.91
2022-07-28T14:39:38.496Z,41.51
2022-07-28T14:42:08.683Z,41.29
2022-07-28T14:44:37.573Z,41.17
2022-07-28T14:47:07.437Z,41.41
2022-07-28T14:49:36.119Z,41.39
2022-07-28T14:52:05.213Z,41.21
2022-07-28T14:54:35.068Z,41.00
2022-07-28T14:57:04.087Z,40.88
2022-07-28T14:59:36.037Z,41.04
2022-07-28T15:02:04.723Z,40.65
2022-07-28T15:04:33.376Z,40.57
2022-07-28T15:07:02.944Z,40.45
2022-07-28T15:09:31.485Z,40.50
2022-07-28T15:12:00.041Z,40.54
2022-07-28T15:14:29.334Z,40.56
2022-07-28T15:16:59.205Z,40.80
2022-07-28T15:19:27.715Z,40.93
2022-07-28T15:21:56.233Z,40.86
2022-07-28T15:24:27.431Z,41.15
2022-07-28T15:26:55.956Z,41.06
2022-07-28T15:29:24.764Z,41.25
2022-07-28T15:31:54.077Z,41.38
2022-07-28T15:34:24.188Z,41.65
2022-07-28T15:36:52.765Z,41.39
2022-07-28T15:39:23.144Z,41.74
2022-07-28T15:41:52.166Z,41.60
2022-07-28T15:44:22.413Z,41.67
2022-07-28T15:46:54.942Z,41.78
2022-07-28T15:49:25.288Z,42.34
2022-07-28T15:51:54.131Z,42.56
2022-07-28T15:54:26.223Z,42.86
2022-07-28T15:56:54.733Z,43.11
2022-07-28T15:59:23.267Z,43.17
2022-07-28T16:01:51.868Z,43.05
2022-07-28T16:04:20.435Z,43.40
2022-07-28T16:07:08.172Z,43.23
2022-07-28T16:09:45.650Z,43.21
2022-07-28T16:12:16.079Z,43.46
2022-07-28T16:14:44.801Z,43.51
2022-07-28T16:17:13.561Z,43.64
2022-07-28T16:19:50.825Z,43.84
2022-07-28T16:22:21.545Z,43.82
2022-07-28T16:24:50.734Z,43.80
2022-07-28T16:27:19.519Z,44.33
2022-07-28T16:29:49.469Z,44.49
2022-07-28T16:32:18.278Z,44.31
2022-07-28T16:34:48.132Z,44.39
2022-07-28T16:37:19.618Z,44.58
2022-07-28T16:39:50.251Z,44.56
2022-07-28T16:42:18.807Z,45.26
2022-07-28T16:44:47.723Z,45.61
2022-07-28T16:47:16.756Z,45.74
2022-07-28T16:49:46.400Z,45.74
2022-07-28T16:52:15.512Z,45.39
2022-07-28T16:54:44.116Z,45.86
2022-07-28T16:57:15.391Z,45.74
2022-07-28T16:59:46.464Z,45.36
2022-07-28T17:02:17.885Z,45.60
2022-07-28T17:04:46.872Z,45.27
2022-07-28T17:07:15.730Z,45.74
2022-07-28T17:09:44.865Z,45.61
2022-07-28T17:12:14.442Z,45.65
2022-07-28T17:14:44.543Z,45.66
2022-07-28T17:17:13.560Z,46.06
2022-07-28T17:19:46.965Z,46.01
2022-07-28T17:22:15.868Z,46.16
2022-07-28T17:24:44.808Z,46.32
2022-07-28T17:30:03.400Z,46.86
2022-07-28T17:32:31.904Z,47.29
2022-07-28T17:35:00.543Z,47.00
2022-07-28T17:37:29.286Z,47.82
2022-07-28T17:39:59.278Z,48.24
2022-07-28T17:42:27.946Z,48.62
2022-07-28T17:44:59.460Z,48.87
2022-07-28T17:47:35.865Z,49.24
2022-07-28T17:50:07.329Z,50.30
2022-07-28T17:52:35.980Z,51.10
2022-07-28T17:55:23.401Z,52.08
2022-07-28T17:57:53.010Z,52.88
2022-07-28T18:00:22.308Z,53.57
2022-07-28T18:02:53.022Z,53.94
2022-07-28T18:05:21.796Z,54.38
2022-07-28T18:07:53.705Z,54.44
2022-07-28T18:10:27.088Z,54.71
2022-07-28T18:12:55.775Z,55.06
2022-07-28T18:15:24.182Z,55.27
2022-07-28T18:17:56.071Z,56.01
2022-07-28T18:20:25.367Z,56.25
2022-07-28T18:22:54.031Z,56.72
2022-07-28T18:25:22.531Z,56.64
2022-07-28T18:27:51.233Z,56.81
2022-07-28T18:30:19.940Z,56.73
2022-07-28T18:32:48.896Z,56.94
2022-07-28T18:35:19.569Z,57.16
2022-07-28T18:37:48.483Z,57.16
2022-07-28T18:40:18.916Z,57.23
2022-07-28T18:42:47.381Z,57.20
2022-07-28T18:45:16.928Z,57.30
2022-07-28T18:47:47.688Z,57.13
2022-07-28T18:50:30.950Z,57.20
2022-07-28T18:53:00.884Z,57.33
2022-07-28T18:55:29.712Z,57.38
2022-07-28T18:57:58.230Z,57.23
2022-07-28T19:00:27.040Z,56.91
2022-07-28T19:02:55.696Z,56.95
2022-07-28T19:05:25.937Z,56.68
2022-07-28T19:07:54.816Z,57.33
2022-07-28T19:10:23.340Z,58.10
2022-07-28T19:12:51.973Z,58.59
2022-07-28T19:15:20.655Z,58.92
2022-07-28T19:18:10.406Z,58.64
2022-07-28T19:20:40.504Z,58.17
2022-07-28T19:23:09.235Z,58.32
2022-07-28T19:25:39.498Z,58.68
2022-07-28T19:28:08.632Z,58.89
2022-07-28T19:30:39.625Z,59.60
2022-07-28T19:33:09.511Z,60.20
2022-07-28T19:35:39.548Z,60.59
2022-07-28T19:38:09.716Z,61.54
2022-07-28T19:40:38.331Z,62.19
2022-07-28T19:43:06.900Z,62.31
2022-07-28T19:45:37.812Z,62.78
2022-07-28T19:48:08.104Z,63.35
2022-07-28T19:50:37.235Z,63.91
2022-07-28T19:53:08.028Z,63.95
2022-07-28T19:55:48.932Z,63.82
2022-07-28T19:58:21.667Z,64.15
2022-07-28T20:00:57.154Z,64.41
2022-07-28T20:04:04.092Z,64.98
2022-07-28T20:06:24.821Z,64.84
2022-07-28T20:09:05.970Z,64.79
2022-07-28T20:11:40.877Z,64.93
2022-07-28T20:14:27.646Z,65.02
2022-07-28T20:16:57.834Z,65.11
2022-07-28T20:19:48.723Z,65.58
2022-07-28T20:22:20.639Z,65.53
2022-07-28T20:25:04.834Z,65.56
2022-07-28T20:27:42.436Z,65.37
2022-07-28T20:30:24.549Z,65.24
2022-07-28T20:33:18.424Z,65.17
2022-07-28T20:36:00.647Z,65.17
2022-07-28T20:38:39.804Z,64.88
2022-07-28T20:41:31.764Z,64.69
2022-07-28T20:44:28.406Z,64.38
2022-07-28T20:47:04.503Z,64.11
2022-07-28T20:49:47.601Z,63.73
2022-07-28T20:52:23.287Z,63.63
2022-07-28T20:55:04.700Z,63.33
2022-07-28T20:58:02.372Z,62.91
2022-07-28T21:00:44.145Z,62.55
2022-07-28T21:03:21.040Z,62.20
2022-07-28T21:06:05.769Z,61.89
2022-07-28T21:08:47.938Z,61.58
2022-07-28T21:11:34.773Z,61.28
2022-07-28T21:14:08.801Z,60.96
2022-07-28T21:20:02.148Z,60.52
2022-07-28T21:22:41.172Z,60.30
2022-07-28T21:25:22.894Z,60.16
2022-07-28T21:28:11.211Z,60.21
2022-07-28T21:31:06.035Z,60.04
2022-07-28T21:33:42.709Z,59.79
2022-07-28T21:36:25.540Z,59.61
2022-07-28T21:38:59.253Z,59.50
2022-07-28T21:41:50.810Z,59.50
2022-07-28T21:44:34.479Z,59.47
2022-07-28T21:47:30.314Z,59.45
2022-07-28T21:50:15.434Z,59.44
2022-07-28T21:52:55.932Z,59.36
2022-07-28T21:55:32.590Z,59.40
2022-07-28T21:58:07.880Z,59.33
2022-07-28T22:00:48.670Z,59.46
2022-07-28T22:03:23.558Z,59.65
2022-07-28T22:06:07.975Z,59.87
2022-07-28T22:08:56.893Z,59.83
2022-07-28T22:11:35.865Z,60.03
2022-07-28T22:14:13.460Z,60.17
2022-07-28T22:16:52.845Z,60.65
2022-07-28T22:19:30.164Z,61.37
2022-07-28T22:22:12.139Z,61.79
2022-07-28T22:24:46.861Z,62.14
2022-07-28T22:27:25.275Z,62.17
2022-07-28T22:30:01.868Z,61.84
2022-07-28T22:32:43.035Z,61.76
2022-07-28T22:35:18.225Z,61.75
2022-07-28T22:37:56.594Z,61.72
2022-07-28T22:40:40.055Z,61.31
2022-07-28T22:43:15.088Z,61.16
2022-07-28T22:45:53.032Z,61.25
2022-07-28T22:48:46.230Z,61.65
2022-07-28T22:51:16.784Z,61.55
2022-07-28T22:53:45.595Z,61.51
2022-07-28T22:56:14.120Z,61.27
2022-07-28T22:58:45.005Z,61.16
2022-07-28T23:01:13.744Z,60.95
2022-07-28T23:03:45.660Z,60.87
2022-07-28T23:06:17.416Z,60.96
2022-07-28T23:08:45.891Z,61.11
2022-07-28T23:11:14.666Z,60.90
2022-07-28T23:13:43.513Z,60.89
2022-07-28T23:16:13.292Z,60.81
2022-07-28T23:18:42.066Z,61.03
2022-07-28T23:21:11.219Z,61.06
2022-07-28T23:23:41.069Z,61.05
2022-07-28T23:26:09.704Z,61.16
2022-07-28T23:28:39.638Z,61.23
2022-07-28T23:31:08.217Z,61.35
2022-07-28T23:33:56.064Z,61.42
2022-07-28T23:36:27.852Z,61.43
2022-07-28T23:38:59.585Z,61.57
2022-07-28T23:41:28.596Z,61.58
2022-07-28T23:43:57.169Z,61.72
2022-07-28T23:46:26.041Z,61.90
2022-07-28T23:48:54.608Z,61.73
2022-07-28T23:51:47.250Z,61.80
2022-07-28T23:54:14.598Z,61.83
2022-07-28T23:56:43.781Z,61.91
2022-07-28T23:59:14.450Z,62.12
